This is the latest recevied weather packets stored in our database for station/object OZ7MKS. If no packets are shown the sender has not sent any weather packets the latest 10 day(s).
| Time | Temp. | Humidity | Pressure | Rain* | Wind** | Luminosity | Snow |
|---|---|---|---|---|---|---|---|
| 1777582204 | 6.67° C | 82% | 1030.4 hPa | 0 mm | - | - | - |
| 1777581304 | 7.22° C | 82% | 1030.5 hPa | 0 mm | - | - | - |
| 1777580404 | 7.22° C | 82% | 1030.5 hPa | 0 mm | - | - | - |
| 1777579504 | 7.78° C | 81% | 1030.5 hPa | 0 mm | - | - | - |
| 1777577404 | 8.33° C | 80% | 1030.4 hPa | 0 mm | - | - | - |
| 1777572904 | 11.11° C | 72% | 1030.4 hPa | 0 mm | - | - | - |
| 1777572004 | 11.67° C | 71% | 1030.4 hPa | 0 mm | - | - | - |
| 1777571404 | 11.67° C | 70% | 1030.4 hPa | 0 mm | - | - | - |
| 1777570504 | 12.22° C | 69% | 1030.5 hPa | 0 mm | - | - | - |
| 1777569604 | 12.78° C | 68% | 1030.6 hPa | 0 mm | - | - | - |
| 1777567504 | 13.33° C | 65% | 1030.7 hPa | 0 mm | - | - | - |
| 1777563604 | 14.44° C | 68% | 1031.1 hPa | 0 mm | - | - | - |
| 1777561804 | 14.44° C | 66% | 1031.2 hPa | 0 mm | - | - | - |
| 1777557304 | 14.44° C | 63% | 1031.7 hPa | 0 mm | - | - | - |
| 1777557004 | 14.44° C | 63% | 1031.7 hPa | 0 mm | - | - | - |
| 1777556404 | 14.44° C | 64% | 1031.7 hPa | 0 mm | - | - | - |
| 1777554304 | 14.44° C | 64% | 1031.9 hPa | 0 mm | - | - | - |
| 1777551903 | 13.89° C | 65% | 1032.1 hPa | 0 mm | - | - | - |
| 1777549504 | 13.33° C | 69% | 1032.2 hPa | 0 mm | - | - | - |
| 1777548303 | 13.33° C | 68% | 1032.3 hPa | 0 mm | - | - | - |
| 1777546504 | 13.33° C | 66% | 1032.3 hPa | 0 mm | - | - | - |
| 1777539904 | 11.11° C | 79% | 1032.2 hPa | 0 mm | - | - | - |
| 1777539304 | 11.11° C | 79% | 1032.3 hPa | 0 mm | - | - | - |
| 1777539004 | 11.11° C | 81% | 1032.3 hPa | 0 mm | - | - | - |
| 1777538104 | 10.56° C | 82% | 1032.3 hPa | 0 mm | - | - | - |
* Rain latest hour (hover to see other rain measurements)
** Current wind speed in m/s (hover to see current wind gust speed)